createdAt,value
2023-01-11T00:00:12.354Z,21.35
2023-01-11T00:03:04.186Z,21.33
2023-01-11T00:05:37.277Z,21.10
2023-01-11T00:08:26.189Z,21.00
2023-01-11T00:11:02.303Z,22.65
2023-01-11T00:13:52.185Z,20.42
2023-01-11T00:16:32.192Z,21.80
2023-01-11T00:19:19.173Z,21.02
2023-01-11T00:22:02.195Z,20.67
2023-01-11T00:24:56.178Z,21.48
2023-01-11T00:27:50.455Z,20.25
2023-01-11T00:30:44.180Z,21.60
2023-01-11T00:33:38.208Z,21.05
2023-01-11T00:36:25.192Z,19.63
2023-01-11T00:39:05.220Z,22.15
2023-01-11T00:42:17.215Z,21.05
2023-01-11T00:45:29.193Z,19.77
2023-01-11T00:48:23.235Z,19.02
2023-01-11T00:51:17.203Z,22.40
2023-01-11T00:54:04.198Z,19.38
2023-01-11T00:56:44.203Z,18.90
2023-01-11T00:59:38.216Z,17.52
2023-01-11T01:02:25.211Z,17.55
2023-01-11T01:04:58.305Z,18.00
2023-01-11T01:07:45.219Z,18.60
2023-01-11T01:10:27.194Z,18.27
2023-01-11T01:13:43.228Z,19.10
2023-01-11T01:16:30.249Z,18.33
2023-01-11T01:19:03.320Z,18.05
2023-01-11T01:21:50.213Z,17.73
2023-01-11T01:24:30.215Z,18.38
2023-01-11T01:27:24.231Z,18.40
2023-01-11T01:30:12.241Z,17.77
2023-01-11T01:32:53.242Z,18.10
2023-01-11T01:35:40.209Z,19.50
2023-01-11T01:38:13.327Z,17.88
2023-01-11T01:41:00.234Z,18.33
2023-01-11T01:43:54.319Z,18.02
2023-01-11T01:46:41.340Z,18.17
2023-01-11T01:49:22.307Z,21.73
2023-01-11T01:52:09.441Z,19.38
2023-01-11T01:54:48.360Z,19.25
2023-01-11T01:57:39.288Z,18.92
2023-01-11T02:00:22.258Z,19.23
2023-01-11T02:03:16.250Z,19.60
2023-01-11T02:06:03.239Z,21.70
2023-01-11T02:08:42.325Z,18.67
2023-01-11T02:11:38.242Z,19.92
2023-01-11T02:14:15.386Z,19.05
2023-01-11T02:17:02.255Z,18.42
2023-01-11T02:19:50.332Z,18.10
2023-01-11T02:22:58.242Z,18.02
2023-01-11T02:26:05.225Z,19.00
2023-01-11T02:29:07.285Z,18.58
2023-01-11T02:32:20.236Z,18.20
2023-01-11T02:35:26.252Z,17.40
2023-01-11T02:38:29.283Z,18.75
2023-01-11T02:42:21.261Z,18.10
2023-01-11T02:45:42.248Z,17.17
2023-01-11T02:48:25.349Z,18.10
2023-01-11T02:51:26.262Z,19.77
2023-01-11T02:54:16.399Z,17.98
2023-01-11T02:56:52.339Z,16.25
2023-01-11T02:59:42.255Z,15.30
2023-01-11T03:02:16.896Z,15.95
2023-01-11T03:05:03.268Z,18.05
2023-01-11T03:07:58.337Z,18.08
2023-01-11T03:11:08.297Z,18.58
2023-01-11T03:14:07.317Z,18.80
2023-01-11T03:17:27.304Z,19.05
2023-01-11T03:20:18.238Z,18.48
2023-01-11T03:22:58.259Z,19.17
2023-01-11T03:26:02.279Z,19.30
2023-01-11T03:28:48.305Z,19.92
2023-01-11T03:32:00.301Z,19.58
2023-01-11T03:34:51.376Z,17.42
2023-01-11T03:37:44.282Z,18.85
2023-01-11T03:40:24.350Z,19.60
2023-01-11T03:43:19.273Z,19.25
2023-01-11T03:46:01.357Z,18.42
2023-01-11T03:49:16.265Z,19.90
2023-01-11T03:52:05.271Z,19.02
2023-01-11T03:54:40.413Z,19.63
2023-01-11T03:57:40.296Z,20.67
2023-01-11T04:00:15.354Z,20.35
2023-01-11T04:03:02.264Z,21.35
2023-01-11T04:05:35.423Z,17.58
2023-01-11T04:08:22.285Z,17.52
2023-01-11T04:10:55.397Z,18.45
2023-01-11T04:13:42.280Z,19.85
2023-01-11T04:16:22.307Z,19.20
2023-01-11T04:19:16.277Z,16.90
2023-01-11T04:22:03.268Z,18.80
2023-01-11T04:24:36.378Z,20.13
2023-01-11T04:27:23.291Z,19.25
2023-01-11T04:29:56.463Z,17.55
2023-01-11T04:32:43.265Z,16.98
2023-01-11T04:35:16.475Z,17.88
2023-01-11T04:38:04.269Z,19.13
2023-01-11T04:40:37.376Z,18.75
2023-01-11T04:43:24.286Z,17.75
2023-01-11T04:46:04.316Z,18.25
2023-01-11T04:48:58.362Z,19.85
2023-01-11T04:51:52.315Z,20.15
2023-01-11T04:54:46.307Z,20.77
2023-01-11T04:57:33.273Z,18.98
2023-01-11T05:00:10.771Z,18.20
2023-01-11T05:02:57.283Z,17.95
2023-01-11T05:05:30.399Z,18.50
2023-01-11T05:08:17.329Z,16.80
2023-01-11T05:10:50.383Z,16.65
2023-01-11T05:13:49.319Z,16.65
2023-01-11T05:16:28.485Z,16.45
2023-01-11T05:19:16.298Z,18.83
2023-01-11T05:21:56.299Z,17.85
2023-01-11T05:24:43.284Z,16.80
2023-01-11T05:27:23.309Z,18.65
2023-01-11T05:30:10.302Z,16.50
2023-01-11T05:32:50.306Z,16.52
2023-01-11T05:35:44.332Z,15.73
2023-01-11T05:38:31.329Z,14.52
2023-01-11T05:41:13.323Z,16.10
2023-01-11T05:44:20.306Z,16.50
2023-01-11T05:47:00.319Z,16.77
2023-01-11T05:49:54.303Z,18.40
2023-01-11T05:52:41.326Z,14.63
2023-01-11T05:55:15.467Z,19.30
2023-01-11T05:58:02.318Z,15.45
2023-01-11T06:00:35.464Z,17.80
2023-01-11T06:03:22.352Z,15.80
2023-01-11T06:05:55.468Z,17.80
2023-01-11T06:08:42.308Z,15.27
2023-01-11T06:11:15.413Z,16.88
2023-01-11T06:14:02.323Z,17.90
2023-01-11T06:16:35.441Z,17.80
2023-01-11T06:19:22.324Z,17.35
2023-01-11T06:22:02.323Z,17.10
2023-01-11T06:24:49.326Z,18.23
2023-01-11T06:27:23.451Z,15.25
2023-01-11T06:30:10.305Z,15.43
2023-01-11T06:32:50.348Z,18.63
2023-01-11T06:35:44.314Z,15.02
2023-01-11T06:38:32.349Z,14.90
2023-01-11T06:41:10.317Z,18.05
2023-01-11T06:43:57.331Z,18.17
2023-01-11T06:46:30.465Z,19.67
2023-01-11T06:49:18.364Z,18.15
2023-01-11T06:52:12.323Z,17.40
2023-01-11T06:54:59.327Z,16.27
2023-01-11T06:57:33.632Z,17.02
2023-01-11T07:00:20.393Z,18.77
2023-01-11T07:02:54.442Z,21.05
2023-01-11T07:05:42.379Z,19.77
2023-01-11T07:08:23.340Z,20.90
2023-01-11T07:11:10.456Z,20.10
2023-01-11T07:13:50.365Z,16.70
2023-01-11T07:16:37.336Z,19.38
2023-01-11T07:19:17.339Z,17.13
2023-01-11T07:22:04.327Z,18.98
2023-01-11T07:24:37.463Z,18.38
2023-01-11T07:27:26.329Z,19.35
2023-01-11T07:30:02.292Z,19.60
2023-01-11T07:32:49.347Z,19.02
2023-01-11T07:35:29.340Z,21.13
2023-01-11T07:38:17.365Z,20.63
2023-01-11T07:40:57.345Z,22.63
2023-01-11T07:43:44.367Z,20.15
2023-01-11T07:46:17.578Z,17.30
2023-01-11T07:49:04.375Z,21.33
2023-01-11T07:51:44.468Z,21.05
2023-01-11T07:54:25.346Z,17.35
2023-01-11T07:57:05.352Z,16.88
2023-01-11T07:59:38.452Z,21.58
2023-01-11T08:02:25.438Z,20.85
2023-01-11T08:04:58.491Z,19.33
2023-01-11T08:07:48.345Z,19.77
2023-01-11T08:10:29.471Z,19.85
2023-01-11T08:13:44.354Z,22.23
2023-01-11T08:16:33.485Z,21.58
2023-01-11T08:19:06.470Z,17.65
2023-01-11T08:21:53.368Z,22.08
2023-01-11T08:24:27.044Z,17.08
2023-01-11T08:27:13.462Z,19.23
2023-01-11T08:29:46.476Z,18.35
2023-01-11T08:32:35.652Z,16.65
2023-01-11T08:35:08.488Z,19.35
2023-01-11T08:37:55.384Z,18.00
2023-01-11T08:40:36.359Z,19.20
2023-01-11T08:43:23.380Z,18.65
2023-01-11T08:46:04.386Z,18.00
2023-01-11T08:48:53.391Z,16.42
2023-01-11T08:51:33.380Z,19.40
2023-01-11T08:54:28.403Z,17.83
2023-01-11T08:57:22.377Z,19.23
2023-01-11T09:00:14.405Z,17.98
2023-01-11T09:02:54.426Z,20.67
2023-01-11T09:05:48.370Z,16.02
2023-01-11T09:08:35.381Z,17.45
2023-01-11T09:11:35.407Z,17.73
2023-01-11T09:14:22.398Z,16.15
2023-01-11T09:16:55.526Z,19.58
2023-01-11T09:19:42.382Z,19.95
2023-01-11T09:22:15.510Z,17.02
2023-01-11T09:25:05.391Z,16.60
2023-01-11T09:27:38.503Z,14.43
2023-01-11T09:30:27.397Z,14.73
2023-01-11T09:33:00.511Z,12.40
2023-01-11T09:35:49.417Z,16.17
2023-01-11T09:38:25.211Z,16.02
2023-01-11T09:41:26.417Z,15.43
2023-01-11T09:44:29.404Z,16.92
2023-01-11T09:47:28.405Z,14.60
2023-01-11T09:50:07.605Z,16.33
2023-01-11T09:52:59.425Z,17.33
2023-01-11T09:56:01.415Z,17.15
2023-01-11T09:59:25.412Z,14.45
2023-01-11T10:02:32.392Z,15.75
2023-01-11T10:05:30.428Z,16.48
2023-01-11T10:18:26.284Z,15.65
2023-01-11T10:19:11.329Z,14.43
2023-01-11T10:22:04.497Z,15.48
2023-01-11T10:25:07.531Z,14.27
2023-01-11T10:28:06.026Z,12.32
2023-01-11T10:31:14.412Z,16.73
2023-01-11T10:34:12.240Z,13.27
2023-01-11T10:37:43.424Z,21.13
2023-01-11T10:41:04.431Z,23.23
2023-01-11T10:43:56.399Z,15.57
2023-01-11T10:46:40.438Z,18.38
2023-01-11T10:49:49.425Z,17.38
2023-01-11T10:52:54.628Z,17.88
2023-01-11T10:55:59.421Z,17.10
2023-01-11T10:59:07.503Z,17.85
2023-01-11T11:02:38.489Z,25.88
2023-01-11T11:06:03.422Z,19.23
2023-01-11T11:08:53.426Z,15.93
2023-01-11T11:11:47.434Z,30.73
2023-01-11T11:14:41.427Z,26.77
2023-01-11T11:17:37.442Z,26.25
2023-01-11T11:20:36.429Z,22.55
2023-01-11T11:23:28.481Z,26.23
2023-01-11T11:26:05.555Z,37.65
2023-01-11T11:29:13.423Z,28.60
2023-01-11T11:31:57.520Z,19.90
2023-01-11T11:35:05.353Z,17.58
2023-01-11T11:37:52.362Z,16.02
2023-01-11T11:41:10.364Z,18.10
2023-01-11T11:44:04.377Z,18.73
2023-01-11T11:47:20.356Z,16.45
2023-01-11T11:50:44.795Z,15.60
2023-01-11T11:53:38.359Z,18.85
2023-01-11T11:56:48.366Z,30.90
2023-01-11T11:59:37.418Z,25.27
2023-01-11T12:02:25.472Z,20.02
2023-01-11T12:05:17.403Z,17.95
2023-01-11T12:07:55.731Z,15.63
2023-01-11T12:10:42.381Z,13.93
2023-01-11T12:13:42.393Z,16.88
2023-01-11T12:16:36.468Z,16.20
2023-01-11T12:19:51.383Z,14.60
2023-01-11T12:22:30.597Z,16.33
2023-01-11T12:25:28.390Z,14.63
2023-01-11T12:28:06.469Z,15.13
2023-01-11T12:31:19.410Z,18.13
2023-01-11T12:34:15.375Z,15.77
2023-01-11T12:37:38.408Z,16.80
2023-01-11T12:40:25.388Z,14.15
2023-01-11T12:43:39.757Z,17.15
2023-01-11T12:47:06.397Z,13.35
2023-01-11T12:49:48.486Z,15.95
2023-01-11T12:53:32.394Z,13.57
2023-01-11T12:56:49.381Z,15.27
2023-01-11T12:59:48.393Z,15.68
2023-01-11T13:02:44.499Z,15.57
2023-01-11T13:05:45.415Z,14.40
2023-01-11T13:08:59.414Z,12.25
2023-01-11T13:12:03.397Z,15.02
2023-01-11T13:15:15.423Z,17.13
2023-01-11T13:18:08.414Z,14.18
2023-01-11T13:21:02.581Z,14.23
2023-01-11T13:24:15.392Z,16.50
2023-01-11T13:27:08.568Z,16.17
2023-01-11T13:29:53.417Z,12.93
2023-01-11T13:32:52.397Z,13.18
2023-01-11T13:35:45.422Z,20.42
2023-01-11T13:39:01.426Z,17.67
2023-01-11T13:42:05.437Z,21.40
2023-01-11T13:45:14.406Z,22.83
2023-01-11T13:48:04.454Z,23.85
2023-01-11T13:50:50.463Z,23.05
2023-01-11T13:53:57.417Z,23.00
2023-01-11T13:56:49.406Z,36.70
2023-01-11T13:59:40.428Z,26.73
2023-01-11T14:02:41.425Z,26.77
2023-01-11T14:05:14.585Z,35.50
2023-01-11T14:08:16.455Z,30.38
2023-01-11T14:11:00.439Z,36.63
2023-01-11T14:14:29.467Z,34.85
2023-01-11T14:17:53.427Z,38.63
2023-01-11T14:21:10.562Z,23.85
2023-01-11T14:23:59.427Z,17.20
2023-01-11T14:27:13.487Z,17.58
2023-01-11T14:30:21.425Z,19.23
2023-01-11T14:32:54.541Z,15.07
2023-01-11T14:36:19.433Z,16.70
2023-01-11T14:39:18.616Z,15.27
2023-01-11T14:42:16.267Z,17.58
2023-01-11T14:45:14.603Z,17.67
2023-01-11T14:48:28.448Z,24.77
2023-01-11T14:51:17.489Z,19.92
2023-01-11T14:54:30.443Z,18.80
2023-01-11T14:57:58.454Z,23.33
2023-01-11T15:00:41.510Z,25.27
2023-01-11T15:03:35.391Z,21.38
2023-01-11T15:06:26.442Z,37.90
2023-01-11T15:09:01.606Z,41.42
2023-01-11T15:11:48.468Z,41.33
2023-01-11T15:14:37.935Z,40.70
2023-01-11T15:17:45.472Z,34.55
2023-01-11T15:20:24.551Z,36.42
2023-01-11T15:23:12.435Z,29.52
2023-01-11T15:25:45.578Z,39.47
2023-01-11T15:28:44.469Z,74.78
2023-01-11T15:31:56.462Z,46.13
2023-01-11T15:34:53.444Z,41.20
2023-01-11T15:38:01.466Z,37.47
2023-01-11T15:40:57.460Z,48.15
2023-01-11T15:44:08.466Z,32.70
2023-01-11T15:47:02.509Z,30.48
2023-01-11T15:50:19.463Z,33.08
2023-01-11T15:53:11.485Z,29.08
2023-01-11T15:56:26.454Z,29.83
2023-01-11T15:59:40.529Z,29.15
2023-01-11T16:02:26.463Z,34.03
2023-01-11T16:05:37.463Z,30.80
2023-01-11T16:08:42.457Z,34.00
2023-01-11T16:11:30.592Z,35.53
2023-01-11T16:14:26.470Z,41.53
2023-01-11T16:17:07.482Z,35.17
2023-01-11T16:20:03.461Z,39.20
2023-01-11T16:23:10.480Z,38.00
2023-01-11T16:26:11.487Z,32.55
2023-01-11T16:29:03.480Z,34.47
2023-01-11T16:32:06.478Z,40.55
2023-01-11T16:35:00.938Z,40.10
2023-01-11T16:37:53.480Z,44.05
2023-01-11T16:40:32.600Z,45.88
2023-01-11T16:43:37.478Z,36.03
2023-01-11T16:46:10.636Z,31.48
2023-01-11T16:49:16.539Z,37.53
2023-01-11T16:51:49.600Z,48.53
2023-01-11T16:54:39.475Z,84.68
2023-01-11T16:57:20.617Z,82.65
2023-01-11T17:00:10.494Z,86.13
2023-01-11T17:02:47.216Z,71.13
2023-01-11T17:05:33.506Z,87.68
2023-01-11T17:08:13.492Z,80.75
2023-01-11T17:11:03.515Z,105.30
2023-01-11T17:13:54.765Z,90.90
2023-01-11T17:16:47.657Z,73.05
2023-01-11T17:19:23.608Z,69.60
2023-01-11T17:22:12.487Z,62.60
2023-01-11T17:24:53.653Z,60.97
2023-01-11T17:27:47.514Z,54.40
2023-01-11T17:30:27.703Z,63.85
2023-01-11T17:33:39.487Z,76.47
2023-01-11T17:36:33.517Z,51.13
2023-01-11T17:39:41.499Z,41.90
2023-01-11T17:42:54.512Z,36.22
2023-01-11T17:45:49.541Z,38.47
2023-01-11T17:48:36.524Z,45.17
2023-01-11T17:51:11.610Z,58.58
2023-01-11T17:53:58.521Z,47.15
2023-01-11T17:56:45.617Z,49.25
2023-01-11T17:59:36.498Z,53.75
2023-01-11T18:02:20.677Z,68.60
2023-01-11T18:05:08.527Z,195.10
2023-01-11T18:07:49.640Z,102.20
2023-01-11T18:10:46.510Z,97.65
2023-01-11T18:13:38.545Z,58.42
2023-01-11T18:16:33.580Z,85.53
2023-01-11T18:19:44.542Z,84.30
2023-01-11T18:22:46.522Z,80.30
2023-01-11T18:25:42.521Z,72.57
2023-01-11T18:28:35.532Z,80.68
2023-01-11T18:31:08.673Z,92.93
2023-01-11T18:33:55.527Z,99.65
2023-01-11T18:36:38.526Z,115.28
2023-01-11T18:39:32.533Z,86.72
2023-01-11T18:42:26.524Z,78.50
2023-01-11T18:44:59.666Z,78.50
2023-01-11T18:47:46.554Z,115.30
2023-01-11T18:50:21.066Z,91.68
2023-01-11T18:53:07.531Z,92.47
2023-01-11T18:55:47.539Z,71.28
2023-01-11T18:58:41.477Z,48.65
2023-01-11T19:01:28.825Z,48.72
2023-01-11T19:04:02.644Z,62.03
2023-01-11T19:06:49.527Z,100.88
2023-01-11T19:09:22.657Z,86.13
2023-01-11T19:12:09.545Z,87.57
2023-01-11T19:14:42.695Z,85.35
2023-01-11T19:17:29.544Z,70.63
2023-01-11T19:20:02.657Z,77.68
2023-01-11T19:22:49.531Z,98.00
2023-01-11T19:25:29.551Z,67.10
2023-01-11T19:28:23.556Z,45.40
2023-01-11T19:31:14.583Z,56.42
2023-01-11T19:33:47.801Z,48.35
2023-01-11T19:36:38.540Z,49.17
2023-01-11T19:39:19.551Z,48.78
2023-01-11T19:42:09.556Z,58.03
2023-01-11T19:44:51.547Z,49.33
2023-01-11T19:47:46.554Z,50.03
2023-01-11T19:50:33.562Z,49.25
2023-01-11T19:53:06.636Z,43.85
2023-01-11T19:55:53.560Z,65.63
2023-01-11T19:58:33.557Z,53.78
2023-01-11T20:01:20.563Z,54.60
2023-01-11T20:04:00.561Z,66.53
2023-01-11T20:06:59.585Z,53.65
2023-01-11T20:09:46.547Z,79.85
2023-01-11T20:12:26.580Z,83.90
2023-01-11T20:15:20.549Z,84.80
2023-01-11T20:18:07.573Z,82.15
2023-01-11T20:20:47.557Z,91.60
2023-01-11T20:23:37.571Z,96.50
2023-01-11T20:26:15.379Z,98.85
2023-01-11T20:29:03.564Z,103.40
2023-01-11T20:31:44.572Z,60.58
2023-01-11T20:34:38.583Z,75.85
2023-01-11T20:37:32.567Z,62.50
2023-01-11T20:40:19.592Z,63.67
2023-01-11T20:42:59.577Z,72.45
2023-01-11T20:45:53.612Z,81.28
2023-01-11T20:48:47.541Z,68.20
2023-01-11T20:51:34.568Z,72.15
2023-01-11T20:54:08.796Z,67.32
2023-01-11T20:56:55.570Z,118.20
2023-01-11T20:59:28.854Z,117.05
2023-01-11T21:02:16.557Z,88.82
2023-01-11T21:04:56.580Z,86.75
2023-01-11T21:07:43.625Z,89.38
2023-01-11T21:10:24.577Z,79.28
2023-01-11T21:13:18.564Z,66.05
2023-01-11T21:16:22.660Z,61.47
2023-01-11T21:19:11.589Z,66.05
2023-01-11T21:21:51.584Z,78.25
2023-01-11T21:24:47.537Z,71.55
2023-01-11T21:27:34.577Z,76.40
2023-01-11T21:30:07.705Z,60.75
2023-01-11T21:32:54.583Z,64.75
2023-01-11T21:35:34.582Z,96.78
2023-01-11T21:38:28.577Z,56.20
2023-01-11T21:41:17.576Z,97.57
2023-01-11T21:43:51.701Z,82.80
2023-01-11T21:46:38.693Z,62.08
2023-01-11T21:49:12.760Z,64.03
2023-01-11T21:51:59.591Z,93.03
2023-01-11T21:54:32.758Z,68.53
2023-01-11T21:57:19.583Z,80.32
2023-01-11T21:59:59.586Z,110.43
2023-01-11T22:02:53.597Z,55.97
2023-01-11T22:05:40.582Z,76.70
2023-01-11T22:08:13.717Z,93.22
2023-01-11T22:11:07.598Z,85.10
2023-01-11T22:13:41.745Z,60.30
2023-01-11T22:16:28.667Z,71.85
2023-01-11T22:19:09.592Z,75.90
2023-01-11T22:21:56.613Z,63.45
2023-01-11T22:24:29.706Z,89.78
2023-01-11T22:27:16.648Z,68.43
2023-01-11T22:29:52.164Z,81.47
2023-01-11T22:32:38.605Z,54.75
2023-01-11T22:35:18.602Z,99.88
2023-01-11T22:38:05.610Z,112.47
2023-01-11T22:40:38.724Z,90.47
2023-01-11T22:43:25.609Z,67.63
2023-01-11T22:46:13.597Z,67.72
2023-01-11T22:49:00.612Z,66.35
2023-01-11T22:51:40.626Z,59.28
2023-01-11T22:54:27.603Z,75.78
2023-01-11T22:57:00.717Z,90.85
2023-01-11T22:59:47.640Z,76.68
2023-01-11T23:02:20.706Z,62.63
2023-01-11T23:05:07.596Z,76.53
2023-01-11T23:07:40.756Z,89.65
2023-01-11T23:10:28.626Z,94.75
2023-01-11T23:13:36.943Z,93.00
2023-01-11T23:16:23.656Z,61.42
2023-01-11T23:18:56.775Z,62.38
2023-01-11T23:21:47.610Z,87.13
2023-01-11T23:24:29.618Z,57.83
2023-01-11T23:27:16.653Z,52.47
2023-01-11T23:29:56.629Z,89.10
2023-01-11T23:32:43.631Z,54.90
2023-01-11T23:35:17.720Z,58.55
2023-01-11T23:38:04.626Z,53.75
2023-01-11T23:41:04.065Z,50.83
2023-01-11T23:43:50.613Z,54.95
2023-01-11T23:46:50.639Z,52.38
2023-01-11T23:49:45.608Z,49.80
2023-01-11T23:52:35.646Z,45.03
2023-01-11T23:55:08.727Z,49.60
2023-01-11T23:58:15.639Z,47.92
